< < Back
Terminal Aerodrome Forecast


Current Version              Previous Versions:   1  2  3  4  5  6  7  8  9  

Terminal Aerodrome Forecast

090
FTUS42 KFFC 262333
TAFMCN
TAF
KMCN 262333Z 2700/2724 14010KT P6SM SKC
     FM270100 12005KT P6SM SCT250
     FM271500 09007KT P6SM FEW045
     FM271900 08010KT P6SM FEW060=

Latest METAR

004
SAUS80 KWBC 270100
MTRMCN
METAR KMCN 270053Z AUTO 14003KT 10SM CLR 29/19 A3003 RMK AO2 SLP164
T02940194 TSNO


USA.gov is the U.S. government's official web portal to all federal, state and local government web resources and services.